Time;durP1;ratioP1;P1;durP2;ratioP2;P2;SDS_P1;SDS_P2;PMS_P1;PMS_P2;Temp;Humidity;BMP_temperature;BMP_pressure;BME280_temperature;BME280_humidity;BME280_pressure;Samples;Min_cycle;Max_cycle;Signal;HPM_P1;HPM_P2
2023/08/05 00:00:54;;;;;;;17.45;5.90;;;;;;;14.99;100.00;101547.28;5061592;28;20186;-66
2023/08/05 00:03:20;;;;;;;16.50;5.72;;;;;;;14.96;100.00;101535.75;5063105;28;20033;-66
2023/08/05 00:05:45;;;;;;;18.30;6.03;;;;;;;14.95;100.00;101532.19;5061188;28;20108;-66
2023/08/05 00:08:11;;;;;;;17.25;5.82;;;;;;;15.04;100.00;101541.06;5063974;28;20483;-66
2023/08/05 00:10:36;;;;;;;18.80;5.82;;;;;;;14.97;100.00;101534.88;5061815;28;20027;-70
2023/08/05 00:13:01;;;;;;;16.90;5.78;;;;;;;14.97;100.00;101530.44;5062356;28;20025;-73
2023/08/05 00:15:27;;;;;;;18.92;5.75;;;;;;;15.04;100.00;101528.63;5063384;28;20024;-68
2023/08/05 00:17:53;;;;;;;18.10;5.90;;;;;;;15.03;100.00;101525.97;5061100;28;20036;-73
2023/08/05 00:20:18;;;;;;;17.98;6.10;;;;;;;14.84;100.00;101523.38;5064097;28;20056;-75
2023/08/05 00:22:43;;;;;;;17.38;6.00;;;;;;;14.80;100.00;101529.59;5060949;28;20476;-66
2023/08/05 00:25:09;;;;;;;17.20;6.20;;;;;;;14.79;100.00;101527.81;5063269;28;20032;-76
2023/08/05 00:27:34;;;;;;;18.10;6.28;;;;;;;14.78;100.00;101531.34;5061851;28;20040;-66
2023/08/05 00:30:00;;;;;;;19.55;6.70;;;;;;;14.83;100.00;101524.25;5065599;28;20029;-69
2023/08/05 00:32:27;;;;;;;20.02;6.60;;;;;;;14.89;100.00;101526.91;5066059;28;20021;-66
2023/08/05 00:34:52;;;;;;;18.88;6.78;;;;;;;14.88;100.00;101518.91;5065128;28;20487;-66
2023/08/05 00:37:17;;;;;;;18.67;6.50;;;;;;;14.94;100.00;101517.13;5068279;28;20033;-66
2023/08/05 00:39:43;;;;;;;19.27;6.85;;;;;;;14.90;100.00;101507.38;5064800;28;20116;-72
2023/08/05 00:42:08;;;;;;;19.55;7.15;;;;;;;14.91;100.00;101516.25;5067089;28;20033;-67
2023/08/05 00:44:33;;;;;;;18.67;6.80;;;;;;;14.85;100.00;101517.13;5066184;28;20033;-77
2023/08/05 00:46:59;;;;;;;19.35;7.13;;;;;;;14.85;100.00;101511.81;5065879;28;20387;-66
2023/08/05 00:49:25;;;;;;;19.30;7.13;;;;;;;14.87;100.00;101507.41;5067315;28;20059;-66
2023/08/05 00:51:51;;;;;;;20.30;6.72;;;;;;;14.88;100.00;101503.84;5064527;28;20033;-68
2023/08/05 00:54:17;;;;;;;19.63;7.10;;;;;;;14.85;100.00;101500.28;5067620;28;20464;-66
2023/08/05 00:56:44;;;;;;;19.88;7.60;;;;;;;14.82;100.00;101501.19;5064809;28;20025;-78
2023/08/05 00:59:11;;;;;;;19.67;7.28;;;;;;;14.80;100.00;101492.34;5066965;28;20067;-78
2023/08/05 01:01:37;;;;;;;19.88;7.47;;;;;;;14.82;100.00;101491.44;5065182;28;20028;-66
2023/08/05 01:04:02;;;;;;;19.00;7.15;;;;;;;14.82;100.00;101495.84;5066002;28;20029;-66
2023/08/05 01:06:28;;;;;;;19.52;7.43;;;;;;;14.68;100.00;101493.25;5066314;28;20111;-78
2023/08/05 01:08:55;;;;;;;19.08;7.40;;;;;;;14.66;100.00;101499.47;5064534;28;20380;-78
2023/08/05 01:11:22;;;;;;;19.33;7.47;;;;;;;14.60;100.00;101495.88;5067469;28;20025;-66
2023/08/05 01:13:47;;;;;;;19.75;7.97;;;;;;;14.62;100.00;101488.81;5063954;28;20017;-66
2023/08/05 01:16:13;;;;;;;19.20;7.53;;;;;;;14.62;100.00;101483.50;5067262;28;20037;-66
2023/08/05 01:18:39;;;;;;;21.38;8.15;;;;;;;14.66;100.00;101484.38;5064796;28;20082;-66
2023/08/05 01:21:12;;;;;;;20.05;7.80;;;;;;;14.48;100.00;101479.94;5065764;28;20066;-66
2023/08/05 01:23:49;;;;;;;19.70;7.68;;;;;;;14.42;100.00;101474.66;5064716;28;20499;-66
2023/08/05 01:26:15;;;;;;;19.83;7.70;;;;;;;14.46;100.00;101479.09;5067113;28;20028;-66
2023/08/05 01:28:41;;;;;;;19.85;7.70;;;;;;;14.30;100.00;101473.78;5064804;28;20094;-66
2023/08/05 01:31:06;;;;;;;19.20;7.68;;;;;;;14.29;100.00;101476.44;5065684;28;20609;-66
2023/08/05 01:33:33;;;;;;;19.95;7.88;;;;;;;14.21;100.00;101484.44;5065487;28;20082;-66
2023/08/05 01:35:58;;;;;;;21.25;8.15;;;;;;;14.10;100.00;101486.19;5065157;28;20067;-66
2023/08/05 01:38:23;;;;;;;19.50;7.88;;;;;;;14.11;100.00;101474.66;5065252;28;20411;-66
2023/08/05 01:40:49;;;;;;;20.10;7.88;;;;;;;14.17;100.00;101474.69;5062053;28;20084;-66
2023/08/05 01:43:14;;;;;;;20.10;7.88;;;;;;;14.19;100.00;101482.66;5067103;28;20107;-77
2023/08/05 01:45:40;;;;;;;20.52;7.70;;;;;;;14.21;100.00;101476.44;5064103;28;20369;-78
2023/08/05 01:48:05;;;;;;;19.02;7.75;;;;;;;14.20;100.00;101476.41;5065508;28;20037;-66
2023/08/05 01:50:30;;;;;;;19.80;7.75;;;;;;;14.17;100.00;101480.00;5065272;28;20021;-67
2023/08/05 01:52:56;;;;;;;19.80;7.57;;;;;;;14.18;100.00;101481.75;5063944;28;20403;-66
2023/08/05 01:55:21;;;;;;;19.15;8.02;;;;;;;14.15;100.00;101481.75;5066766;28;20055;-66
2023/08/05 01:57:46;;;;;;;19.38;7.65;;;;;;;14.04;100.00;101478.22;5063143;28;20495;-66
2023/08/05 02:00:12;;;;;;;19.40;8.30;;;;;;;13.85;100.00;101472.91;5066334;28;20103;-66
2023/08/05 02:02:38;;;;;;;19.90;8.23;;;;;;;13.71;100.00;101469.34;5064480;28;20036;-66
2023/08/05 02:05:03;;;;;;;19.95;8.55;;;;;;;13.58;100.00;101476.41;5064748;28;20025;-66
2023/08/05 02:07:29;;;;;;;19.67;8.18;;;;;;;13.48;100.00;101485.22;5065045;28;20028;-66
2023/08/05 02:09:54;;;;;;;19.90;8.32;;;;;;;13.36;100.00;101489.63;5063661;28;20033;-66
2023/08/05 02:12:19;;;;;;;20.70;8.70;;;;;;;13.32;100.00;101484.25;5066402;28;20064;-78
2023/08/05 02:14:45;;;;;;;21.30;9.23;;;;;;;13.27;100.00;101480.72;5062880;28;20044;-66
2023/08/05 02:17:10;;;;;;;19.75;8.65;;;;;;;13.21;100.00;101485.13;5065669;28;20074;-77
2023/08/05 02:19:35;;;;;;;19.65;8.68;;;;;;;13.18;100.00;101484.22;5063967;28;20480;-73
2023/08/05 02:22:01;;;;;;;21.33;9.50;;;;;;;13.13;100.00;101473.56;5063085;28;20060;-66
2023/08/05 02:24:26;;;;;;;22.35;9.57;;;;;;;13.11;100.00;101470.03;5065420;28;20056;-66
2023/08/05 02:26:51;;;;;;;21.08;9.23;;;;;;;13.06;100.00;101485.03;5062552;28;20095;-66
2023/08/05 02:29:17;;;;;;;21.67;9.38;;;;;;;13.07;100.00;101476.22;5066173;28;20052;-66
2023/08/05 02:31:42;;;;;;;20.73;9.55;;;;;;;13.15;100.00;101476.22;5062898;28;20069;-75
2023/08/05 02:34:07;;;;;;;22.08;9.90;;;;;;;13.20;100.00;101478.03;5064639;28;20031;-68
2023/08/05 02:36:32;;;;;;;21.40;10.00;;;;;;;13.13;100.00;101470.03;5064772;28;20024;-66
2023/08/05 02:38:58;;;;;;;20.48;9.90;;;;;;;13.11;100.00;101459.41;5063284;28;20025;-66
2023/08/05 02:41:23;;;;;;;21.13;9.88;;;;;;;13.04;100.00;101455.84;5065402;28;20056;-67
2023/08/05 02:43:48;;;;;;;22.27;9.80;;;;;;;12.99;100.00;101459.34;5062745;28;20079;-66
2023/08/05 02:46:14;;;;;;;22.23;9.73;;;;;;;12.97;100.00;101458.47;5063959;28;20033;-66
2023/08/05 02:48:39;;;;;;;21.75;10.07;;;;;;;13.00;100.00;101463.78;5063296;28;20116;-66
2023/08/05 02:51:04;;;;;;;22.10;10.48;;;;;;;13.06;100.00;101470.03;5063700;28;20064;-66
2023/08/05 02:53:30;;;;;;;21.98;10.13;;;;;;;12.99;100.00;101467.31;5064174;28;20112;-67
2023/08/05 02:55:55;;;;;;;22.08;10.05;;;;;;;12.99;100.00;101462.00;5062899;28;20029;-67
2023/08/05 02:58:21;;;;;;;23.10;10.05;;;;;;;13.02;100.00;101459.41;5065400;28;20036;-66
2023/08/05 03:00:46;;;;;;;22.15;10.13;;;;;;;12.93;100.00;101462.00;5057889;28;20064;-66
2023/08/05 03:03:12;;;;;;;22.40;10.40;;;;;;;12.83;100.00;101455.75;5064907;28;20056;-74
2023/08/05 03:05:38;;;;;;;21.95;10.50;;;;;;;12.80;100.00;101467.25;5062918;28;20024;-66
2023/08/05 03:08:04;;;;;;;23.02;10.73;;;;;;;12.80;100.00;101456.63;5063365;28;20048;-67
2023/08/05 03:10:29;;;;;;;22.90;11.10;;;;;;;12.81;100.00;101446.91;5064311;28;20040;-75
2023/08/05 03:12:55;;;;;;;21.88;10.73;;;;;;;12.82;100.00;101433.66;5062160;28;20059;-71
2023/08/05 03:15:20;;;;;;;22.85;10.90;;;;;;;12.89;100.00;101434.56;5065188;28;20464;-67
2023/08/05 03:17:45;;;;;;;21.63;10.85;;;;;;;12.87;100.00;101434.56;5061897;28;20064;-68
2023/08/05 03:20:28;;;;;;;22.85;10.68;;;;;;;12.85;100.00;101444.25;5064071;28;20053;-76
2023/08/05 03:22:55;;;;;;;22.08;11.02;;;;;;;12.85;100.00;101433.66;5058671;28;20024;-70
2023/08/05 03:25:21;;;;;;;23.80;11.60;;;;;;;12.84;100.00;101429.25;5065231;28;20082;-76
2023/08/05 03:27:48;;;;;;;24.13;11.73;;;;;;;12.72;100.00;101431.81;5057520;28;20109;-76
2023/08/05 03:30:14;;;;;;;23.95;11.70;;;;;;;12.69;100.00;101426.50;5064460;28;20041;-68
2023/08/05 03:32:39;;;;;;;23.52;11.75;;;;;;;12.64;100.00;101429.16;5062363;28;20162;-76
2023/08/05 03:35:05;;;;;;;22.75;11.07;;;;;;;12.69;100.00;101429.16;5063562;28;20380;-67
2023/08/05 03:37:30;;;;;;;22.73;11.55;;;;;;;12.65;100.00;101430.03;5063759;28;20032;-68
2023/08/05 03:39:56;;;;;;;22.27;10.77;;;;;;;12.64;100.00;101425.59;5061942;28;20021;-66
2023/08/05 03:42:21;;;;;;;23.75;11.00;;;;;;;12.65;100.00;101427.38;5064867;28;20154;-66
2023/08/05 03:44:46;;;;;;;23.45;11.32;;;;;;;12.69;100.00;101416.78;5061532;28;20361;-66
2023/08/05 03:47:12;;;;;;;22.10;10.75;;;;;;;12.67;100.00;101404.41;5063956;28;20077;-66
2023/08/05 03:49:38;;;;;;;22.50;10.07;;;;;;;12.67;100.00;101399.09;5062317;28;20017;-66
2023/08/05 03:52:04;;;;;;;21.77;11.05;;;;;;;12.66;100.00;101400.84;5062686;28;20090;-66
2023/08/05 03:54:29;;;;;;;22.38;11.40;;;;;;;12.70;100.00;101399.13;5063490;28;20024;-66
2023/08/05 03:56:58;;;;;;;20.63;10.13;;;;;;;12.71;100.00;101399.13;5061465;28;20032;-66
2023/08/05 03:59:23;;;;;;;22.17;10.45;;;;;;;12.72;100.00;101392.03;5064204;28;20091;-67
2023/08/05 04:01:48;;;;;;;22.38;10.90;;;;;;;12.70;100.00;101385.84;5061121;28;20038;-67
2023/08/05 04:04:14;;;;;;;23.35;11.35;;;;;;;12.73;100.00;101385.88;5063154;28;20032;-77
2023/08/05 04:06:39;;;;;;;22.00;11.07;;;;;;;12.79;100.00;101385.88;5062032;28;20036;-66
2023/08/05 04:09:06;;;;;;;23.02;11.48;;;;;;;12.73;100.00;101383.22;5062824;28;20037;-66
2023/08/05 04:11:32;;;;;;;22.33;10.80;;;;;;;12.79;100.00;101380.56;5062979;28;20029;-66
2023/08/05 04:13:59;;;;;;;21.92;10.88;;;;;;;12.83;100.00;101382.38;5061562;28;20029;-78
2023/08/05 04:16:25;;;;;;;22.20;10.65;;;;;;;12.84;100.00;101388.53;5064088;28;20201;-66
2023/08/05 04:18:50;;;;;;;22.08;10.48;;;;;;;12.83;100.00;101400.94;5060559;28;20515;-66
2023/08/05 04:21:16;;;;;;;22.00;11.20;;;;;;;12.73;100.00;101396.47;5063964;28;20115;-66
2023/08/05 04:23:42;;;;;;;22.13;10.95;;;;;;;12.76;100.00;101379.69;5061636;28;20108;-69
2023/08/05 04:26:07;;;;;;;22.92;10.90;;;;;;;12.75;100.00;101365.53;5062725;28;20048;-66
2023/08/05 04:28:33;;;;;;;23.75;11.35;;;;;;;12.79;100.00;101362.00;5062594;28;20021;-67
2023/08/05 04:30:59;;;;;;;22.50;10.77;;;;;;;12.80;100.00;101358.47;5061529;28;20033;-73
2023/08/05 04:33:27;;;;;;;23.73;11.40;;;;;;;12.83;100.00;101353.19;5063747;28;20094;-66
2023/08/05 04:35:53;;;;;;;22.30;11.07;;;;;;;12.81;100.00;101346.97;5060702;28;20060;-66
2023/08/05 04:38:18;;;;;;;23.52;11.20;;;;;;;12.85;100.00;101346.09;5064313;28;20058;-67
2023/08/05 04:40:44;;;;;;;23.98;11.55;;;;;;;12.93;100.00;101351.44;5061013;28;20033;-67
2023/08/05 04:43:09;;;;;;;22.35;11.18;;;;;;;12.99;100.00;101337.28;5063051;28;20468;-66
2023/08/05 04:45:35;;;;;;;23.08;11.43;;;;;;;13.01;100.00;101338.19;5062182;28;20036;-68
2023/08/05 04:48:01;;;;;;;23.70;11.80;;;;;;;13.00;100.00;101333.75;5061626;28;20037;-73
2023/08/05 04:50:26;;;;;;;24.20;11.68;;;;;;;13.03;100.00;101332.00;5063498;28;20025;-76
2023/08/05 04:52:51;;;;;;;23.23;11.43;;;;;;;13.03;100.00;101332.00;5060457;28;20108;-67
2023/08/05 04:55:17;;;;;;;22.55;11.73;;;;;;;13.12;100.00;101335.53;5063775;28;20111;-66
2023/08/05 04:57:44;;;;;;;22.77;11.82;;;;;;;13.17;100.00;101339.09;5061265;28;20033;-76
2023/08/05 05:00:10;;;;;;;22.45;11.65;;;;;;;13.18;100.00;101333.78;5062606;28;20025;-76
2023/08/05 05:02:37;;;;;;;23.13;12.30;;;;;;;13.17;100.00;101339.09;5061895;28;20032;-66
2023/08/05 05:05:03;;;;;;;23.02;11.60;;;;;;;13.14;100.00;101342.63;5061842;28;20037;-76
2023/08/05 05:07:28;;;;;;;24.35;11.80;;;;;;;13.08;100.00;101340.84;5062807;28;20067;-67
2023/08/05 05:09:54;;;;;;;23.95;12.25;;;;;;;13.01;100.00;101343.50;5060398;28;20116;-66
2023/08/05 05:12:19;;;;;;;23.80;12.68;;;;;;;12.97;100.00;101339.94;5063946;28;20037;-67
2023/08/05 05:14:45;;;;;;;24.10;12.75;;;;;;;13.02;100.00;101329.34;5061829;28;20025;-78
2023/08/05 05:17:16;;;;;;;23.30;12.05;;;;;;;13.04;100.00;101327.56;5066805;28;20045;-66
2023/08/05 05:19:42;;;;;;;24.00;12.25;;;;;;;13.09;100.00;101325.78;5064733;28;20048;-66
2023/08/05 05:22:08;;;;;;;23.55;12.18;;;;;;;13.04;100.00;101327.56;5065834;28;20033;-66
2023/08/05 05:24:34;;;;;;;24.33;12.70;;;;;;;13.08;100.00;101334.66;5065813;28;20025;-66
2023/08/05 05:26:59;;;;;;;26.98;13.43;;;;;;;13.12;100.00;101333.78;5064750;28;20495;-66
2023/08/05 05:29:24;;;;;;;24.90;13.00;;;;;;;13.10;100.00;101332.88;5066982;28;20551;-67
2023/08/05 05:31:50;;;;;;;24.92;13.43;;;;;;;13.17;100.00;101329.34;5064025;28;20423;-66
2023/08/05 05:34:15;;;;;;;25.17;12.50;;;;;;;13.17;100.00;101323.19;5065625;28;20082;-66
2023/08/05 05:36:40;;;;;;;23.83;12.68;;;;;;;13.21;100.00;101320.53;5063507;28;20020;-66
2023/08/05 05:39:06;;;;;;;26.55;13.07;;;;;;;13.22;100.00;101317.00;5065361;28;20025;-66
2023/08/05 05:41:31;;;;;;;24.83;12.88;;;;;;;13.27;100.00;101318.78;5065991;28;20124;-67
2023/08/05 05:43:58;;;;;;;26.38;12.77;;;;;;;13.30;100.00;101313.47;5064155;28;20025;-77
2023/08/05 05:46:25;;;;;;;24.08;12.63;;;;;;;13.36;100.00;101313.50;5066846;28;20459;-67
2023/08/05 05:48:50;;;;;;;23.75;12.60;;;;;;;13.46;100.00;101307.28;5063445;28;20034;-66
2023/08/05 05:51:15;;;;;;;24.02;12.15;;;;;;;13.59;100.00;101306.38;5065955;28;20368;-66
2023/08/05 05:53:41;;;;;;;24.83;12.20;;;;;;;13.74;100.00;101305.47;5064209;28;20024;-66
2023/08/05 05:56:06;;;;;;;24.45;11.95;;;;;;;13.87;100.00;101308.13;5064785;28;20022;-66
2023/08/05 05:58:34;;;;;;;24.38;12.30;;;;;;;13.91;100.00;101305.47;5065017;28;20020;-67
2023/08/05 06:01:01;;;;;;;25.52;12.10;;;;;;;13.97;100.00;101301.03;5064071;28;20029;-68
2023/08/05 06:03:27;;;;;;;23.42;11.88;;;;;;;14.04;100.00;101298.34;5065981;28;20028;-74
2023/08/05 06:05:52;;;;;;;23.17;11.82;;;;;;;14.13;100.00;101294.78;5063220;28;20052;-67
2023/08/05 06:08:17;;;;;;;24.17;12.60;;;;;;;14.19;100.00;101297.41;5066323;28;20462;-66
2023/08/05 06:10:43;;;;;;;23.20;12.07;;;;;;;14.28;100.00;101297.41;5063422;28;20033;-67
2023/08/05 06:13:09;;;;;;;23.98;12.15;;;;;;;14.35;100.00;101292.91;5065002;28;20112;-77
2023/08/05 06:15:39;;;;;;;22.83;11.30;;;;;;;14.38;100.00;101289.38;5064953;28;20048;-76
2023/08/05 06:18:04;;;;;;;23.45;11.75;;;;;;;14.35;100.00;101295.56;5064501;28;20491;-67
2023/08/05 06:20:29;;;;;;;23.23;11.82;;;;;;;14.45;100.00;101285.78;5065226;28;20044;-66
2023/08/05 06:22:55;;;;;;;22.90;12.13;;;;;;;14.55;100.00;101295.50;5063057;28;20418;-70
2023/08/05 06:25:20;;;;;;;23.45;11.02;;;;;;;14.58;100.00;101300.78;5066107;28;20383;-67
2023/08/05 06:27:46;;;;;;;22.83;11.30;;;;;;;14.62;100.00;101291.94;5061985;28;20040;-68
2023/08/05 06:30:11;;;;;;;23.48;11.60;;;;;;;14.74;100.00;101283.00;5065117;28;20029;-66
2023/08/05 06:32:36;;;;;;;23.88;10.80;;;;;;;14.81;100.00;101282.06;5064137;28;20510;-66
2023/08/05 06:35:02;;;;;;;22.00;11.05;;;;;;;15.00;100.00;101276.63;5063612;28;20023;-67
2023/08/05 06:37:27;;;;;;;22.42;10.25;;;;;;;15.11;100.00;101290.72;5065963;28;20419;-66
2023/08/05 06:39:52;;;;;;;21.48;10.00;;;;;;;15.15;100.00;101281.81;5062366;28;20082;-76
2023/08/05 06:42:18;;;;;;;21.20;9.55;;;;;;;15.26;100.00;101288.84;5065760;28;20021;-67
2023/08/05 06:44:44;;;;;;;21.65;9.10;;;;;;;15.24;100.00;101286.19;5063011;28;20155;-75
2023/08/05 06:47:10;;;;;;;19.83;8.77;;;;;;;15.24;100.00;101278.22;5064234;28;20048;-66
2023/08/05 06:49:35;;;;;;;21.20;8.95;;;;;;;15.26;100.00;101279.09;5064181;28;20029;-66
2023/08/05 06:52:01;;;;;;;20.20;8.75;;;;;;;15.32;100.00;101273.72;5063089;28;20029;-66
2023/08/05 06:54:26;;;;;;;20.63;8.70;;;;;;;15.42;100.00;101274.53;5065154;28;20021;-66
2023/08/05 06:56:51;;;;;;;21.42;9.35;;;;;;;15.43;100.00;101272.72;5062319;28;20029;-66
2023/08/05 06:59:17;;;;;;;21.70;9.60;;;;;;;15.43;100.00;101268.28;5065403;28;20100;-67
2023/08/05 07:01:42;;;;;;;21.40;9.82;;;;;;;15.53;100.00;101263.75;5063146;28;20028;-66
2023/08/05 07:04:07;;;;;;;21.67;10.10;;;;;;;15.51;100.00;101258.44;5063941;28;20029;-66
2023/08/05 07:06:33;;;;;;;21.95;9.45;;;;;;;15.54;100.00;101253.97;5062655;28;20467;-66
2023/08/05 07:08:58;;;;;;;20.77;9.13;;;;;;;15.61;100.00;101247.69;5062339;28;20136;-66
2023/08/05 07:11:24;;;;;;;21.20;9.80;;;;;;;15.71;100.00;101243.16;5065464;28;20028;-67
2023/08/05 07:13:49;;;;;;;21.15;9.00;;;;;;;15.71;100.00;101241.34;5057608;28;20029;-67
2023/08/05 07:16:14;;;;;;;19.80;8.18;;;;;;;15.68;100.00;101234.31;5064688;28;20499;-67
2023/08/05 07:18:40;;;;;;;19.88;7.57;;;;;;;15.73;100.00;101247.56;5062695;28;20025;-69
2023/08/05 07:21:05;;;;;;;19.55;8.18;;;;;;;15.76;100.00;101236.00;5063102;28;20025;-66
2023/08/05 07:23:30;;;;;;;20.13;8.40;;;;;;;15.81;100.00;101242.19;5063118;28;20066;-66
2023/08/05 07:25:59;;;;;;;19.35;8.05;;;;;;;15.98;100.00;101237.53;5061870;28;20036;-66
2023/08/05 07:28:26;;;;;;;20.13;8.23;;;;;;;16.10;100.00;101246.31;5064562;28;20040;-68
2023/08/05 07:31:03;;;;;;;19.25;7.65;;;;;;;16.17;100.00;101242.66;5061464;28;20440;-70
2023/08/05 07:33:29;;;;;;;20.42;7.82;;;;;;;16.22;100.00;101240.81;5059519;28;20083;-67
2023/08/05 07:35:56;;;;;;;19.10;7.90;;;;;;;16.34;100.00;101240.66;5064720;28;20033;-71
2023/08/05 07:38:25;;;;;;;19.10;7.40;;;;;;;16.51;100.00;101236.88;5061257;28;20104;-67
2023/08/05 07:40:54;;;;;;;19.65;7.80;;;;;;;16.84;100.00;101242.63;5057415;28;20032;-66
2023/08/05 07:43:23;;;;;;;19.20;7.40;;;;;;;16.92;100.00;101237.19;5064663;28;20024;-76
2023/08/05 07:45:49;;;;;;;19.65;7.00;;;;;;;16.82;100.00;101233.75;5061291;28;20028;-77
2023/08/05 07:48:14;;;;;;;17.77;6.65;;;;;;;16.82;100.00;101234.66;5064071;28;20037;-77
2023/08/05 07:50:40;;;;;;;19.02;7.47;;;;;;;16.85;100.00;101223.91;5062420;28;20025;-75
2023/08/05 07:53:05;;;;;;;20.65;8.05;;;;;;;16.97;100.00;101213.97;5062517;28;20029;-74
2023/08/05 07:55:33;;;;;;;19.73;7.28;;;;;;;16.93;100.00;101217.59;5064146;28;20158;-77
2023/08/05 07:57:59;;;;;;;18.58;7.00;;;;;;;16.96;100.00;101213.06;5060410;28;20384;-72
2023/08/05 08:00:26;;;;;;;18.55;7.10;;;;;;;16.95;100.00;101189.97;5064398;28;20099;-77
2023/08/05 08:02:52;;;;;;;18.83;6.93;;;;;;;17.07;100.00;101203.09;5057416;28;20482;-77
2023/08/05 08:05:17;;;;;;;19.35;6.85;;;;;;;17.20;100.00;101187.75;5064055;28;20035;-77
2023/08/05 08:07:46;;;;;;;17.55;6.30;;;;;;;17.29;100.00;101186.72;5061669;28;20046;-68
2023/08/05 08:10:12;;;;;;;17.33;6.28;;;;;;;17.48;100.00;101184.56;5063461;28;20028;-67
2023/08/05 08:12:37;;;;;;;18.73;6.45;;;;;;;17.77;100.00;101183.13;5061325;28;20488;-78
2023/08/05 08:15:03;;;;;;;18.20;6.43;;;;;;;17.90;100.00;101179.31;5061898;28;20106;-77
2023/08/05 08:17:29;;;;;;;16.23;5.55;;;;;;;17.81;100.00;101179.50;5063827;28;20033;-67
2023/08/05 08:19:54;;;;;;;15.15;5.15;;;;;;;18.03;100.00;101174.59;5060583;28;20056;-72
2023/08/05 08:22:19;;;;;;;15.77;5.68;;;;;;;18.04;100.00;101173.69;5064095;28;20071;-67
2023/08/05 08:24:45;;;;;;;15.52;5.53;;;;;;;17.94;100.00;101158.75;5061490;28;20029;-75
2023/08/05 08:27:10;;;;;;;13.63;4.78;;;;;;;17.81;100.00;101162.53;5062689;28;20373;-73
2023/08/05 08:29:35;;;;;;;17.63;4.70;;;;;;;17.68;100.00;101164.59;5062767;28;20426;-74
2023/08/05 08:32:01;;;;;;;13.32;4.63;;;;;;;17.73;100.00;101157.38;5061646;28;20388;-77
2023/08/05 08:34:26;;;;;;;14.70;4.40;;;;;;;17.77;100.00;101159.94;5063902;28;20054;-74
2023/08/05 08:36:51;;;;;;;15.05;4.50;;;;;;;17.78;100.00;101151.00;5060737;28;20033;-74
2023/08/05 08:39:17;;;;;;;14.57;4.68;;;;;;;18.10;100.00;101161.94;5063716;28;20039;-73
2023/08/05 08:41:45;;;;;;;12.32;4.55;;;;;;;18.89;100.00;101141.41;5061465;28;20123;-76
2023/08/05 08:44:12;;;;;;;12.40;4.50;;;;;;;19.25;100.00;101142.25;5062817;28;20024;-70
2023/08/05 08:46:38;;;;;;;14.18;4.53;;;;;;;19.10;100.00;101131.94;5062262;28;20021;-67
2023/08/05 08:49:03;;;;;;;12.52;4.18;;;;;;;19.14;100.00;101129.13;5061628;28;20083;-66
2023/08/05 08:51:29;;;;;;;14.88;4.47;;;;;;;19.28;100.00;101130.53;5067505;28;20017;-67
2023/08/05 08:53:55;;;;;;;12.40;4.00;;;;;;;19.43;100.00;101129.25;5064467;28;20471;-67
2023/08/05 08:56:21;;;;;;;14.00;4.30;;;;;;;19.40;100.00;101127.53;5060583;28;20467;-67
2023/08/05 08:58:46;;;;;;;15.88;4.55;;;;;;;19.31;100.00;101117.09;5067433;28;20059;-67
2023/08/05 09:01:16;;;;;;;12.10;4.13;;;;;;;19.23;100.00;101121.78;5065416;28;20376;-66
2023/08/05 09:03:42;;;;;;;13.00;4.25;;;;;;;19.13;100.00;101114.00;5066415;28;20087;-66
2023/08/05 09:06:08;;;;;;;12.88;4.22;;;;;;;19.09;100.00;101109.63;5066078;28;20463;-79
2023/08/05 09:08:34;;;;;;;12.25;4.03;;;;;;;19.38;100.00;101097.19;5065109;28;20086;-78
2023/08/05 09:11:00;;;;;;;11.38;3.90;;;;;;;20.04;100.00;101097.09;5066921;28;20387;-66
2023/08/05 09:13:26;;;;;;;15.82;4.30;;;;;;;20.31;100.00;101100.69;5064569;28;20369;-67
2023/08/05 09:15:53;;;;;;;11.45;3.92;;;;;;;20.45;100.00;101092.22;5067417;28;20031;-76
2023/08/05 09:18:19;;;;;;;13.00;4.03;;;;;;;20.09;100.00;101089.78;5064204;28;20112;-67
2023/08/05 09:20:44;;;;;;;12.43;4.20;;;;;;;19.40;100.00;101084.66;5065193;28;20128;-67
2023/08/05 09:23:10;;;;;;;14.15;4.60;;;;;;;19.17;100.00;101083.50;5065302;28;20044;-67
2023/08/05 09:25:40;;;;;;;12.68;4.20;;;;;;;19.30;100.00;101067.09;5065175;28;20061;-66
2023/08/05 09:28:06;;;;;;;11.98;4.15;;;;;;;19.45;100.00;101066.63;5065801;28;20145;-67
2023/08/05 09:30:35;;;;;;;12.52;4.15;;;;;;;19.55;100.00;101064.56;5064493;28;20035;-77
2023/08/05 09:33:00;;;;;;;15.98;5.28;;;;;;;19.39;100.00;101068.63;5066468;28;20031;-74
2023/08/05 09:35:26;;;;;;;14.18;4.97;;;;;;;19.07;100.00;101055.19;5063828;28;20033;-67
2023/08/05 09:37:53;;;;;;;16.65;5.20;;;;;;;18.90;100.00;101057.47;5067070;28;20025;-68
2023/08/05 09:40:28;;;;;;;15.27;4.80;;;;;;;18.82;100.00;101050.47;5063787;28;20033;-72
2023/08/05 09:42:57;;;;;;;15.48;5.20;;;;;;;18.89;100.00;101045.00;5059945;28;20032;-72
2023/08/05 09:45:25;;;;;;;15.73;5.10;;;;;;;18.84;100.00;101052.25;5059705;28;20021;-66
2023/08/05 09:48:00;;;;;;;17.83;5.43;;;;;;;18.80;100.00;101046.97;5066641;28;20091;-67
2023/08/05 09:50:27;;;;;;;16.55;5.72;;;;;;;18.76;100.00;101039.06;5059972;28;20374;-68
2023/08/05 09:52:56;;;;;;;17.55;5.90;;;;;;;18.97;100.00;101042.97;5066935;28;20472;-67
2023/08/05 09:55:22;;;;;;;15.15;5.28;;;;;;;19.24;100.00;101037.78;5059181;28;20059;-71
2023/08/05 09:57:48;;;;;;;15.00;5.10;;;;;;;19.19;100.00;101023.63;5066126;28;20033;-67
2023/08/05 10:00:14;;;;;;;15.07;5.07;;;;;;;19.04;100.00;101022.28;5064170;28;20032;-66
2023/08/05 10:02:44;;;;;;;13.90;4.68;;;;;;;19.10;100.00;101022.97;5064064;28;20112;-77
2023/08/05 10:05:10;;;;;;;15.68;5.10;;;;;;;18.94;100.00;101018.97;5064619;28;20037;-66
2023/08/05 10:07:38;;;;;;;16.67;5.07;;;;;;;18.86;100.00;101026.28;5064448;28;20040;-67
2023/08/05 10:10:16;;;;;;;17.92;5.28;;;;;;;18.86;100.00;101015.56;5065426;28;20472;-67
2023/08/05 10:13:14;;;;;;;13.95;4.78;;;;;;;18.96;100.00;101020.69;5064939;28;20025;-70
2023/08/05 10:15:42;;;;;;;14.20;4.90;;;;;;;19.18;100.00;101009.38;5063292;28;20061;-67
2023/08/05 10:18:10;;;;;;;14.70;5.35;;;;;;;18.77;100.00;101004.22;5064654;28;20024;-74
2023/08/05 10:20:36;;;;;;;14.98;5.20;;;;;;;18.30;100.00;101017.03;5063836;28;20056;-66
2023/08/05 10:23:10;;;;;;;19.38;7.00;;;;;;;17.06;100.00;101017.06;5064272;28;20025;-66
2023/08/05 10:25:59;;;;;;;18.75;7.60;;;;;;;16.24;100.00;101014.97;5064053;28;20029;-66
2023/08/05 10:28:27;;;;;;;19.75;8.30;;;;;;;16.13;100.00;101023.13;5048636;28;20109;-66
2023/08/05 10:30:56;;;;;;;20.45;9.23;;;;;;;15.98;100.00;101023.38;5058626;28;20551;-67
2023/08/05 10:33:22;;;;;;;19.80;9.55;;;;;;;15.81;100.00;101026.28;5058776;28;20481;-66
2023/08/05 10:35:49;;;;;;;19.00;8.88;;;;;;;15.80;100.00;101014.75;5065665;28;20024;-71
2023/08/05 10:38:19;;;;;;;19.63;9.30;;;;;;;15.74;100.00;101004.16;5063326;28;20032;-66
2023/08/05 10:40:50;;;;;;;19.27;9.05;;;;;;;15.91;100.00;101009.25;5065144;28;20392;-66
2023/08/05 10:43:31;;;;;;;19.27;8.45;;;;;;;15.97;100.00;101008.28;5063330;28;20493;-67
2023/08/05 10:46:01;;;;;;;18.60;8.15;;;;;;;16.11;100.00;101008.97;5059065;28;20079;-67
2023/08/05 10:48:33;;;;;;;19.55;8.23;;;;;;;16.29;100.00;101013.09;5065690;28;20028;-67
2023/08/05 10:51:06;;;;;;;19.02;7.60;;;;;;;16.55;100.00;101009.09;5059648;28;20021;-66
2023/08/05 10:53:31;;;;;;;18.58;7.25;;;;;;;16.82;100.00;101001.50;5065039;28;20033;-78
2023/08/05 10:55:57;;;;;;;18.58;7.13;;;;;;;17.11;100.00;100995.63;5062674;28;20025;-67
2023/08/05 10:58:35;;;;;;;18.05;6.40;;;;;;;17.25;100.00;100995.34;5065416;28;20024;-66
2023/08/05 11:01:03;;;;;;;16.95;6.28;;;;;;;17.40;100.00;100984.34;5059647;28;20429;-66
2023/08/05 11:03:31;;;;;;;15.65;5.85;;;;;;;17.59;100.00;100984.81;5065276;28;20517;-67